createdAt,value
2022-12-04T00:05:25.071Z,101436.31
2022-12-04T00:15:28.350Z,101444.10
2022-12-04T00:25:34.206Z,101447.25
2022-12-04T00:35:41.437Z,101454.95
2022-12-04T00:45:44.583Z,101458.89
2022-12-04T00:55:47.796Z,101451.19
2022-12-04T01:05:50.906Z,101454.66
2022-12-04T01:15:54.333Z,101458.14
2022-12-04T01:25:59.277Z,101456.38
2022-12-04T01:36:05.380Z,101468.52
2022-12-04T01:46:09.866Z,101459.19
2022-12-04T01:56:13.874Z,101447.30
2022-12-04T02:06:17.133Z,101443.58
2022-12-04T02:16:41.200Z,101437.83
2022-12-04T02:26:58.520Z,101428.46
2022-12-04T02:37:27.883Z,101425.67
2022-12-04T02:47:33.564Z,101425.41
2022-12-04T02:57:42.744Z,101427.95
2022-12-04T03:08:04.673Z,101422.39
2022-12-04T03:18:23.304Z,101413.92
2022-12-04T03:28:34.113Z,101417.82
2022-12-04T03:39:18.065Z,101420.34
2022-12-04T03:49:42.444Z,101399.91
2022-12-04T03:59:56.137Z,101397.54
2022-12-04T04:10:06.457Z,101407.80
2022-12-04T04:20:33.910Z,101407.48
2022-12-04T04:30:37.172Z,101396.45
2022-12-04T04:40:56.417Z,101394.37
2022-12-04T04:51:02.413Z,101400.03
2022-12-04T05:01:10.563Z,101400.98
2022-12-04T05:11:15.695Z,101406.98
2022-12-04T05:21:18.797Z,101406.41
2022-12-04T05:31:21.997Z,101420.11
2022-12-04T05:41:25.349Z,101416.96
2022-12-04T05:51:28.611Z,101416.30
2022-12-04T06:01:31.991Z,101431.63
2022-12-04T06:11:38.017Z,101425.85
2022-12-04T06:21:42.918Z,101417.40
2022-12-04T06:31:46.064Z,101452.88
2022-12-04T06:41:49.273Z,101447.78
2022-12-04T06:51:52.427Z,101457.58
2022-12-04T07:01:55.637Z,101456.27
2022-12-04T07:11:58.822Z,101451.77
2022-12-04T07:22:01.915Z,101456.59
2022-12-04T07:32:05.219Z,101459.38
2022-12-04T07:42:08.354Z,101466.42
2022-12-04T07:52:11.462Z,101472.50
2022-12-04T08:02:14.577Z,101482.52
2022-12-04T08:12:17.760Z,101480.52
2022-12-04T08:22:25.023Z,101480.45
2022-12-04T08:32:28.592Z,101482.09
2022-12-04T08:42:31.754Z,101475.89
2022-12-04T08:52:34.930Z,101478.91
2022-12-04T09:02:38.320Z,101480.06
2022-12-04T09:12:41.689Z,101476.19
2022-12-04T09:23:02.699Z,101465.14
2022-12-04T09:33:06.382Z,101466.26
2022-12-04T09:43:18.241Z,101467.15
2022-12-04T09:53:28.979Z,101462.05
2022-12-04T10:03:32.268Z,101448.58
2022-12-04T10:14:13.619Z,101432.33
2022-12-04T10:24:29.072Z,101429.91
2022-12-04T10:34:32.590Z,101423.23
2022-12-04T10:44:35.687Z,101414.42
2022-12-04T10:54:43.710Z,101406.85
2022-12-04T11:05:00.627Z,101394.48
2022-12-04T11:15:06.964Z,101380.20
2022-12-04T11:25:18.751Z,101376.81
2022-12-04T11:35:25.064Z,101378.63
2022-12-04T11:45:28.408Z,101370.84
2022-12-04T11:55:44.910Z,101360.89
2022-12-04T12:06:04.176Z,101366.77
2022-12-04T12:16:07.426Z,101371.84
2022-12-04T12:26:14.506Z,101350.78
2022-12-04T12:36:22.128Z,101339.40
2022-12-04T12:46:33.202Z,101346.50
2022-12-04T12:56:44.798Z,101357.77
2022-12-04T13:07:08.485Z,101359.16
2022-12-04T13:17:16.198Z,101359.66
2022-12-04T13:27:28.706Z,101356.79
2022-12-04T13:38:02.865Z,101364.50
2022-12-04T13:48:06.305Z,101370.46
2022-12-04T13:58:12.489Z,101383.08
2022-12-04T14:08:21.491Z,101386.88
2022-12-04T14:18:30.276Z,101378.73
2022-12-04T14:28:41.925Z,101386.90
2022-12-04T14:38:49.081Z,101394.30
2022-12-04T14:49:11.047Z,101397.13
2022-12-04T14:59:20.036Z,101394.12
2022-12-04T15:09:43.418Z,101398.56
2022-12-04T15:19:46.951Z,101405.90
2022-12-04T15:29:52.504Z,101401.81
2022-12-04T15:39:57.528Z,101398.34
2022-12-04T15:50:16.416Z,101388.58
2022-12-04T16:00:23.981Z,101383.88
2022-12-04T16:10:33.400Z,101379.10
2022-12-04T16:20:38.667Z,101377.65
2022-12-04T16:30:42.170Z,101379.29
2022-12-04T16:40:47.260Z,101381.99
2022-12-04T16:50:51.280Z,101377.38
2022-12-04T17:00:56.461Z,101375.89
2022-12-04T17:10:59.594Z,101363.98
2022-12-04T17:21:07.502Z,101374.39
2022-12-04T17:31:18.585Z,101366.27
2022-12-04T17:41:22.125Z,101356.20
2022-12-04T17:51:25.404Z,101348.73
2022-12-04T18:01:29.649Z,101355.89
2022-12-04T18:11:35.351Z,101360.23
2022-12-04T18:21:39.193Z,101362.12
2022-12-04T18:31:42.539Z,101359.11
2022-12-04T18:41:47.250Z,101374.04
2022-12-04T18:51:50.631Z,101369.87
2022-12-04T19:01:55.042Z,101370.14
2022-12-04T19:11:59.380Z,101382.67
2022-12-04T19:22:03.944Z,101373.36
2022-12-04T19:32:07.575Z,101358.73
2022-12-04T19:42:11.349Z,101342.03
2022-12-04T19:52:14.941Z,101349.38
2022-12-04T20:02:19.928Z,101380.27
2022-12-04T20:12:24.683Z,101406.42
2022-12-04T20:22:27.854Z,101423.34
2022-12-04T20:32:31.012Z,101419.08
2022-12-04T20:42:35.308Z,101411.73
2022-12-04T20:52:38.773Z,101396.59
2022-12-04T21:02:43.695Z,101370.55
2022-12-04T21:13:05.997Z,101362.16
2022-12-04T21:23:09.128Z,101359.67
2022-12-04T21:33:12.394Z,101368.95
2022-12-04T21:43:15.631Z,101373.55
2022-12-04T21:53:18.812Z,101364.95
2022-12-04T22:03:22.059Z,101360.18
2022-12-04T22:13:25.380Z,101351.33
2022-12-04T22:23:28.577Z,101348.05
2022-12-04T22:33:32.780Z,101340.59
2022-12-04T22:43:40.712Z,101335.56
2022-12-04T22:53:53.072Z,101327.43
2022-12-04T23:03:57.391Z,101323.77
2022-12-04T23:14:03.188Z,101319.04
2022-12-04T23:24:07.103Z,101319.36
2022-12-04T23:34:10.447Z,101323.92
2022-12-04T23:44:13.682Z,101315.15
2022-12-04T23:54:16.762Z,101315.55
